Time;durP1;ratioP1;P1;durP2;ratioP2;P2;SDS_P1;SDS_P2;PMS_P1;PMS_P2;Temp;Humidity;BMP_temperature;BMP_pressure;BME280_temperature;BME280_humidity;BME280_pressure;Samples;Min_cycle;Max_cycle;Signal;HPM_P1;HPM_P2
2024/04/14 00:00:56;;;;;;;29.77;13.57;;;;;;;;;;4925128;29;20031;-75
2024/04/14 00:03:22;;;;;;;18.30;10.23;;;;;;;;;;4937504;28;20508;-75
2024/04/14 00:05:48;;;;;;;19.02;11.07;;;;;;;;;;4932479;29;20464;-74
2024/04/14 00:08:14;;;;;;;15.77;10.40;;;;;;;;;;4944749;28;20039;-77
2024/04/14 00:10:40;;;;;;;14.50;9.77;;;;;;;;;;4942400;28;20038;-76
2024/04/14 00:13:06;;;;;;;13.20;11.05;;;;;;;;;;4945193;28;20043;-75
2024/04/14 00:15:32;;;;;;;16.20;8.82;;;;;;;;;;4939283;28;20051;-76
2024/04/14 00:17:58;;;;;;;22.00;10.77;;;;;;;;;;4931509;28;20039;-77
2024/04/14 00:20:25;;;;;;;13.43;11.48;;;;;;;;;;4942124;28;20094;-76
2024/04/14 00:22:50;;;;;;;14.45;10.35;;;;;;;;;;4942829;28;20035;-74
2024/04/14 00:25:16;;;;;;;14.60;10.50;;;;;;;;;;4927644;28;20039;-76
2024/04/14 00:27:43;;;;;;;10.70;9.35;;;;;;;;;;4943968;28;20063;-75
2024/04/14 00:30:10;;;;;;;11.07;8.25;;;;;;;;;;4928763;28;20043;-75
2024/04/14 00:32:37;;;;;;;23.90;10.25;;;;;;;;;;4941027;28;20614;-75
2024/04/14 00:35:03;;;;;;;20.02;10.02;;;;;;;;;;4940583;28;20043;-76
2024/04/14 00:37:29;;;;;;;16.45;10.20;;;;;;;;;;4937137;28;20086;-75
2024/04/14 00:39:55;;;;;;;16.02;10.48;;;;;;;;;;4942746;28;20043;-76
2024/04/14 00:42:21;;;;;;;17.67;9.70;;;;;;;;;;4945316;28;20061;-75
2024/04/14 00:44:47;;;;;;;14.35;9.23;;;;;;;;;;4937909;28;20062;-75
2024/04/14 00:47:13;;;;;;;13.20;8.93;;;;;;;;;;4940649;28;20040;-75
2024/04/14 00:49:39;;;;;;;25.08;9.23;;;;;;;;;;4922202;29;20441;-75
2024/04/14 00:52:05;;;;;;;13.38;9.52;;;;;;;;;;4943306;28;20124;-77
2024/04/14 00:54:33;;;;;;;20.58;9.68;;;;;;;;;;4922437;29;20126;-76
2024/04/14 00:57:00;;;;;;;11.43;9.18;;;;;;;;;;4940230;28;20470;-76
2024/04/14 00:59:26;;;;;;;15.45;7.70;;;;;;;;;;4936374;28;20103;-77
2024/04/14 01:01:51;;;;;;;14.90;9.80;;;;;;;;;;4946789;28;20035;-75
2024/04/14 01:04:17;;;;;;;17.80;10.35;;;;;;;;;;4907954;28;20054;-75
2024/04/14 01:06:43;;;;;;;24.30;10.05;;;;;;;;;;4943200;28;20145;-77
2024/04/14 01:09:08;;;;;;;16.00;10.27;;;;;;;;;;4939773;29;20051;-77
2024/04/14 01:11:34;;;;;;;19.33;10.60;;;;;;;;;;4944313;28;20040;-77
2024/04/14 01:14:04;;;;;;;12.57;9.18;;;;;;;;;;4940735;28;20047;-76
2024/04/14 01:16:31;;;;;;;12.13;9.48;;;;;;;;;;4924198;29;20027;-75
2024/04/14 01:18:57;;;;;;;11.00;9.30;;;;;;;;;;4941938;28;20069;-75
2024/04/14 01:21:24;;;;;;;12.98;9.50;;;;;;;;;;4944310;28;20055;-75
2024/04/14 01:24:11;;;;;;;14.85;9.57;;;;;;;;;;4936599;28;20050;-76
2024/04/14 01:26:37;;;;;;;12.80;8.52;;;;;;;;;;4924064;29;20504;-75
2024/04/14 01:29:03;;;;;;;12.00;8.32;;;;;;;;;;4918203;29;20027;-75
2024/04/14 01:31:29;;;;;;;11.80;7.82;;;;;;;;;;4924117;29;20042;-76
2024/04/14 01:33:55;;;;;;;14.05;7.60;;;;;;;;;;4941769;28;20055;-76
2024/04/14 01:36:20;;;;;;;16.15;9.80;;;;;;;;;;4938317;28;20039;-75
2024/04/14 01:38:46;;;;;;;16.48;8.20;;;;;;;;;;4938944;28;20071;-76
2024/04/14 01:41:13;;;;;;;16.40;9.40;;;;;;;;;;4922284;29;20039;-75
2024/04/14 01:43:39;;;;;;;20.83;9.65;;;;;;;;;;4924451;28;20579;-76
2024/04/14 01:46:04;;;;;;;11.93;9.68;;;;;;;;;;4940528;28;20126;-76
2024/04/14 01:48:30;;;;;;;13.15;9.73;;;;;;;;;;4922106;29;20492;-74
2024/04/14 01:50:56;;;;;;;26.10;9.75;;;;;;;;;;4927240;29;20170;-76
2024/04/14 01:53:22;;;;;;;15.90;9.07;;;;;;;;;;4930194;28;20054;-75
2024/04/14 01:55:48;;;;;;;19.30;8.30;;;;;;;;;;4927752;28;20050;-76
2024/04/14 01:58:13;;;;;;;16.33;9.50;;;;;;;;;;4943343;28;20070;-76
2024/04/14 02:00:40;;;;;;;10.82;8.52;;;;;;;;;;4946781;28;20059;-76
2024/04/14 02:03:06;;;;;;;15.98;8.93;;;;;;;;;;4939565;28;20505;-76
2024/04/14 02:05:32;;;;;;;13.20;8.77;;;;;;;;;;4923489;29;20464;-76
2024/04/14 02:08:01;;;;;;;9.63;7.97;;;;;;;;;;4951264;28;20027;-76
2024/04/14 02:10:26;;;;;;;16.02;8.75;;;;;;;;;;4912415;28;20054;-75
2024/04/14 02:12:52;;;;;;;12.73;9.05;;;;;;;;;;4940362;28;20523;-76
2024/04/14 02:15:18;;;;;;;17.88;9.13;;;;;;;;;;4946447;28;20054;-76
2024/04/14 02:17:44;;;;;;;11.20;7.70;;;;;;;;;;4940383;28;20432;-77
2024/04/14 02:20:30;;;;;;;20.27;8.52;;;;;;;;;;4930715;28;20039;-75
2024/04/14 02:22:56;;;;;;;16.73;8.50;;;;;;;;;;4937294;29;20094;-75
2024/04/14 02:25:22;;;;;;;14.70;8.82;;;;;;;;;;4934283;29;20067;-75
2024/04/14 02:27:47;;;;;;;15.93;8.18;;;;;;;;;;4949251;28;20110;-75
2024/04/14 02:30:13;;;;;;;14.57;9.02;;;;;;;;;;4947418;28;20064;-74
2024/04/14 02:32:40;;;;;;;12.63;9.80;;;;;;;;;;4948732;28;20061;-75
2024/04/14 02:35:06;;;;;;;14.20;9.85;;;;;;;;;;4940005;28;20024;-75
2024/04/14 02:37:32;;;;;;;18.88;10.70;;;;;;;;;;4935739;28;20086;-74
2024/04/14 02:39:58;;;;;;;14.48;11.23;;;;;;;;;;4949797;28;20042;-75
2024/04/14 02:42:24;;;;;;;20.83;11.35;;;;;;;;;;4947344;28;20552;-74
2024/04/14 02:44:50;;;;;;;17.23;10.77;;;;;;;;;;4940556;28;20547;-74
2024/04/14 02:47:16;;;;;;;16.45;8.55;;;;;;;;;;4945102;28;20035;-75
2024/04/14 02:49:44;;;;;;;10.30;8.40;;;;;;;;;;4945797;28;20054;-75
2024/04/14 02:52:10;;;;;;;12.15;9.18;;;;;;;;;;4934905;29;20046;-74
2024/04/14 02:54:36;;;;;;;14.90;8.35;;;;;;;;;;4950311;28;20047;-74
2024/04/14 02:57:01;;;;;;;12.45;8.77;;;;;;;;;;4956008;28;20046;-75
2024/04/14 02:59:27;;;;;;;13.40;9.57;;;;;;;;;;4926545;29;20047;-75
2024/04/14 03:01:53;;;;;;;11.35;9.10;;;;;;;;;;4958235;28;20030;-74
2024/04/14 03:04:19;;;;;;;13.80;9.52;;;;;;;;;;4959695;28;20461;-74
2024/04/14 03:06:45;;;;;;;10.88;9.73;;;;;;;;;;4942195;29;20374;-74
2024/04/14 03:09:14;;;;;;;14.25;10.02;;;;;;;;;;4946371;28;20095;-74
2024/04/14 03:11:47;;;;;;;13.23;8.57;;;;;;;;;;4951299;28;20031;-74
2024/04/14 03:14:19;;;;;;;12.75;8.63;;;;;;;;;;4959676;28;20119;-74
2024/04/14 03:16:45;;;;;;;14.18;8.07;;;;;;;;;;4960664;28;20043;-75
2024/04/14 03:19:11;;;;;;;13.00;8.57;;;;;;;;;;4959228;28;20039;-72
2024/04/14 03:21:38;;;;;;;15.80;8.02;;;;;;;;;;4961917;28;20028;-75
2024/04/14 03:24:04;;;;;;;17.17;8.70;;;;;;;;;;4961067;28;20099;-76
2024/04/14 03:26:30;;;;;;;13.05;9.82;;;;;;;;;;4946805;28;20031;-75
2024/04/14 03:28:56;;;;;;;13.75;9.48;;;;;;;;;;4947772;28;20031;-73
2024/04/14 03:31:22;;;;;;;11.02;9.05;;;;;;;;;;4931585;28;20504;-73
2024/04/14 03:33:47;;;;;;;13.23;8.63;;;;;;;;;;4940587;28;20027;-73
2024/04/14 03:36:14;;;;;;;9.68;8.68;;;;;;;;;;4947128;28;20154;-74
2024/04/14 03:38:40;;;;;;;12.05;8.88;;;;;;;;;;4939766;28;20052;-75
2024/04/14 03:41:05;;;;;;;12.68;8.18;;;;;;;;;;4928095;28;20039;-74
2024/04/14 03:43:32;;;;;;;11.05;9.18;;;;;;;;;;4927631;29;20109;-74
2024/04/14 03:45:58;;;;;;;10.93;9.65;;;;;;;;;;4928037;29;20043;-80
2024/04/14 03:48:23;;;;;;;16.23;8.75;;;;;;;;;;4952071;28;20035;-80
2024/04/14 03:50:49;;;;;;;11.27;8.15;;;;;;;;;;4951133;28;20583;-79
2024/04/14 03:53:16;;;;;;;11.52;8.93;;;;;;;;;;4946028;29;20051;-82
2024/04/14 03:55:43;;;;;;;12.20;9.25;;;;;;;;;;4934833;29;20035;-82
2024/04/14 03:58:09;;;;;;;10.27;8.65;;;;;;;;;;4930134;29;20047;-79
2024/04/14 04:00:34;;;;;;;18.17;7.70;;;;;;;;;;4928755;28;20523;-80
2024/04/14 04:03:01;;;;;;;14.38;8.57;;;;;;;;;;4927616;28;20040;-79
2024/04/14 04:05:28;;;;;;;9.07;8.13;;;;;;;;;;4936676;28;20590;-80
2024/04/14 04:07:54;;;;;;;12.25;8.25;;;;;;;;;;4942753;28;20369;-80
2024/04/14 04:10:22;;;;;;;14.75;8.93;;;;;;;;;;4943666;28;20568;-77
2024/04/14 04:12:48;;;;;;;17.08;8.45;;;;;;;;;;4944820;28;20054;-81
2024/04/14 04:15:13;;;;;;;19.52;8.73;;;;;;;;;;4955254;28;20031;-80
2024/04/14 04:17:39;;;;;;;16.08;9.07;;;;;;;;;;4930189;29;20431;-76
2024/04/14 04:20:05;;;;;;;13.15;7.25;;;;;;;;;;4928055;29;20098;-78
2024/04/14 04:22:31;;;;;;;13.05;8.43;;;;;;;;;;4943348;28;20047;-77
2024/04/14 04:24:56;;;;;;;10.65;8.48;;;;;;;;;;4942569;28;20472;-78
2024/04/14 04:27:22;;;;;;;8.90;8.05;;;;;;;;;;4946804;28;20066;-78
2024/04/14 04:29:48;;;;;;;14.70;7.82;;;;;;;;;;4939140;28;20038;-79
2024/04/14 04:32:17;;;;;;;16.77;8.10;;;;;;;;;;4942516;28;20043;-79
2024/04/14 04:34:43;;;;;;;11.85;8.18;;;;;;;;;;4942381;28;20097;-77
2024/04/14 04:37:09;;;;;;;13.13;7.68;;;;;;;;;;4945192;28;20039;-79
2024/04/14 04:39:35;;;;;;;11.75;7.70;;;;;;;;;;4916346;29;20062;-78
2024/04/14 04:42:01;;;;;;;11.38;8.35;;;;;;;;;;4922738;29;20032;-79
2024/04/14 04:44:27;;;;;;;10.10;7.70;;;;;;;;;;4925255;29;20043;-78
2024/04/14 04:46:52;;;;;;;7.43;6.75;;;;;;;;;;4923383;29;20027;-78
2024/04/14 04:49:18;;;;;;;12.18;8.48;;;;;;;;;;4921437;29;20071;-78
2024/04/14 04:51:44;;;;;;;16.80;6.97;;;;;;;;;;4921477;29;20043;-77
2024/04/14 04:54:10;;;;;;;8.32;7.40;;;;;;;;;;4921714;29;20044;-78
2024/04/14 04:56:36;;;;;;;12.98;6.75;;;;;;;;;;4926557;29;20043;-79
2024/04/14 04:59:02;;;;;;;10.82;6.18;;;;;;;;;;4924481;29;20047;-79
2024/04/14 05:01:28;;;;;;;7.38;6.57;;;;;;;;;;4922564;29;20439;-78
2024/04/14 05:03:53;;;;;;;9.80;7.15;;;;;;;;;;4921586;29;20040;-78
2024/04/14 05:06:19;;;;;;;11.90;7.13;;;;;;;;;;4921495;29;20111;-78
2024/04/14 05:08:46;;;;;;;10.57;6.88;;;;;;;;;;4920578;29;20063;-77
2024/04/14 05:11:12;;;;;;;9.93;7.30;;;;;;;;;;4919533;29;20449;-79
2024/04/14 05:13:37;;;;;;;11.90;6.28;;;;;;;;;;4922715;29;20044;-78
2024/04/14 05:16:03;;;;;;;9.32;7.50;;;;;;;;;;4921676;29;20028;-78
2024/04/14 05:18:29;;;;;;;12.43;6.38;;;;;;;;;;4920081;29;20047;-79
2024/04/14 05:20:55;;;;;;;12.40;4.93;;;;;;;;;;4922830;29;20046;-78
2024/04/14 05:23:21;;;;;;;6.60;5.25;;;;;;;;;;4927525;29;20050;-78
2024/04/14 05:25:50;;;;;;;7.10;5.13;;;;;;;;;;4926849;29;20027;-78
2024/04/14 05:28:16;;;;;;;6.00;4.88;;;;;;;;;;4916748;29;20841;-79
2024/04/14 05:30:42;;;;;;;8.73;5.38;;;;;;;;;;4919251;29;20130;-79
2024/04/14 05:33:08;;;;;;;11.98;4.90;;;;;;;;;;4922093;29;20048;-78
2024/04/14 05:35:34;;;;;;;6.68;5.25;;;;;;;;;;4930112;29;20043;-78
2024/04/14 05:38:00;;;;;;;13.15;6.18;;;;;;;;;;4927222;29;20504;-78
2024/04/14 05:40:27;;;;;;;8.48;6.60;;;;;;;;;;4938991;28;20031;-78
2024/04/14 05:42:54;;;;;;;8.40;5.75;;;;;;;;;;4945686;28;20032;-78
2024/04/14 05:45:22;;;;;;;8.40;5.55;;;;;;;;;;4939815;28;20575;-78
2024/04/14 05:47:48;;;;;;;13.43;6.43;;;;;;;;;;4924665;28;20035;-78
2024/04/14 05:50:15;;;;;;;11.18;5.63;;;;;;;;;;4930114;28;20043;-77
2024/04/14 05:52:40;;;;;;;6.28;4.80;;;;;;;;;;4903988;29;20036;-76
2024/04/14 05:55:06;;;;;;;5.70;4.70;;;;;;;;;;4939852;29;20028;-79
2024/04/14 05:57:32;;;;;;;7.85;4.07;;;;;;;;;;4938680;28;20070;-77
2024/04/14 05:59:59;;;;;;;4.63;4.07;;;;;;;;;;4924206;29;20074;-78
2024/04/14 06:02:25;;;;;;;4.10;3.80;;;;;;;;;;4941852;28;20134;-77
2024/04/14 06:04:53;;;;;;;4.78;4.28;;;;;;;;;;4940545;28;20056;-80
2024/04/14 06:07:18;;;;;;;9.52;4.47;;;;;;;;;;4916276;29;20035;-79
2024/04/14 06:09:44;;;;;;;7.82;3.83;;;;;;;;;;4934285;28;20533;-79
2024/04/14 06:12:10;;;;;;;10.35;4.93;;;;;;;;;;4941758;28;20031;-79
2024/04/14 06:14:36;;;;;;;5.78;4.30;;;;;;;;;;4924643;28;20504;-79
2024/04/14 06:17:02;;;;;;;8.48;4.32;;;;;;;;;;4941855;28;20075;-77
2024/04/14 06:19:28;;;;;;;4.00;3.70;;;;;;;;;;4920632;29;20162;-76
2024/04/14 06:21:53;;;;;;;4.90;3.78;;;;;;;;;;4927534;29;20035;-77
2024/04/14 06:24:19;;;;;;;4.35;3.95;;;;;;;;;;4930096;28;20546;-79
2024/04/14 06:26:45;;;;;;;5.57;3.33;;;;;;;;;;4926819;29;20031;-78
2024/04/14 06:29:11;;;;;;;3.75;3.25;;;;;;;;;;4923604;29;20141;-75
2024/04/14 06:31:37;;;;;;;3.55;3.25;;;;;;;;;;4943106;28;20110;-79
2024/04/14 06:34:03;;;;;;;7.07;4.15;;;;;;;;;;4940899;28;20047;-79
2024/04/14 06:36:29;;;;;;;4.35;3.50;;;;;;;;;;4931527;28;20125;-80
2024/04/14 06:38:54;;;;;;;3.90;3.47;;;;;;;;;;4917554;28;20057;-84
2024/04/14 06:41:20;;;;;;;5.15;3.65;;;;;;;;;;4954794;28;20035;-80
2024/04/14 06:43:46;;;;;;;3.72;3.50;;;;;;;;;;4950942;28;20043;-78
2024/04/14 06:46:12;;;;;;;4.25;3.85;;;;;;;;;;4926546;28;20090;-77
2024/04/14 06:48:38;;;;;;;5.13;3.80;;;;;;;;;;4949093;28;20034;-79
2024/04/14 06:51:04;;;;;;;6.95;4.20;;;;;;;;;;4935830;28;20032;-77
2024/04/14 06:53:30;;;;;;;3.10;2.85;;;;;;;;;;4934943;28;20047;-77
2024/04/14 06:55:59;;;;;;;2.70;2.50;;;;;;;;;;4943940;28;20035;-77
2024/04/14 06:58:25;;;;;;;2.50;2.30;;;;;;;;;;4941692;29;20516;-78
2024/04/14 07:00:51;;;;;;;5.05;2.65;;;;;;;;;;4909016;29;20042;-75
2024/04/14 07:03:18;;;;;;;2.78;2.58;;;;;;;;;;4924204;29;20099;-77
2024/04/14 07:05:44;;;;;;;2.42;2.22;;;;;;;;;;4941620;28;20039;-77
2024/04/14 07:08:09;;;;;;;4.70;2.47;;;;;;;;;;4939310;29;20421;-75
2024/04/14 07:10:36;;;;;;;2.90;2.60;;;;;;;;;;4933906;29;20043;-75
2024/04/14 07:13:02;;;;;;;2.42;2.22;;;;;;;;;;4946359;28;20043;-76
2024/04/14 07:15:27;;;;;;;2.78;2.38;;;;;;;;;;4933677;29;20043;-75
2024/04/14 07:17:53;;;;;;;3.13;1.75;;;;;;;;;;4945183;28;20043;-76
2024/04/14 07:20:20;;;;;;;2.10;2.00;;;;;;;;;;4939860;28;20036;-76
2024/04/14 07:22:46;;;;;;;3.72;1.90;;;;;;;;;;4940288;28;20603;-75
2024/04/14 07:25:12;;;;;;;3.03;1.60;;;;;;;;;;4933892;29;20160;-75
2024/04/14 07:27:38;;;;;;;2.60;2.10;;;;;;;;;;4915656;28;20126;-76
2024/04/14 07:30:04;;;;;;;1.83;1.73;;;;;;;;;;4946603;28;20433;-76
2024/04/14 07:32:31;;;;;;;2.60;1.83;;;;;;;;;;4948924;28;20560;-76
2024/04/14 07:34:56;;;;;;;2.88;2.00;;;;;;;;;;4922744;28;20062;-75
2024/04/14 07:37:22;;;;;;;1.77;1.67;;;;;;;;;;4939098;28;20760;-74
2024/04/14 07:39:48;;;;;;;1.60;1.50;;;;;;;;;;4940185;28;20134;-76
2024/04/14 07:42:14;;;;;;;1.25;1.25;;;;;;;;;;4922815;28;20023;-75
2024/04/14 07:44:40;;;;;;;1.38;1.25;;;;;;;;;;4939687;28;20530;-75
2024/04/14 07:47:24;;;;;;;1.77;1.67;;;;;;;;;;4940685;28;20118;-76
2024/04/14 07:49:50;;;;;;;2.15;1.90;;;;;;;;;;4923141;29;20452;-76
2024/04/14 07:52:16;;;;;;;1.52;1.42;;;;;;;;;;4939279;28;20032;-76
2024/04/14 07:54:42;;;;;;;3.88;1.60;;;;;;;;;;4939226;28;20058;-77
2024/04/14 07:57:09;;;;;;;2.97;1.83;;;;;;;;;;4940515;28;20428;-77
2024/04/14 07:59:35;;;;;;;1.33;1.30;;;;;;;;;;4927036;29;20090;-76
2024/04/14 08:02:01;;;;;;;1.40;1.30;;;;;;;;;;4941904;28;20428;-76
2024/04/14 08:04:27;;;;;;;1.40;1.30;;;;;;;;;;4926177;28;20050;-75
2024/04/14 08:06:53;;;;;;;1.30;1.20;;;;;;;;;;4945239;28;20027;-75
2024/04/14 08:09:20;;;;;;;2.70;1.13;;;;;;;;;;4947821;28;20078;-76
2024/04/14 08:11:46;;;;;;;1.38;1.35;;;;;;;;;;4947026;28;20102;-76
2024/04/14 08:14:13;;;;;;;1.50;1.40;;;;;;;;;;4947675;28;20568;-74
2024/04/14 08:16:40;;;;;;;1.58;1.30;;;;;;;;;;4946185;28;20035;-74
2024/04/14 08:19:06;;;;;;;1.42;1.20;;;;;;;;;;4946426;28;20046;-75
2024/04/14 08:21:32;;;;;;;1.20;1.20;;;;;;;;;;4939581;28;20497;-75
2024/04/14 08:23:58;;;;;;;1.70;1.60;;;;;;;;;;4947680;28;20525;-74
2024/04/14 08:26:24;;;;;;;2.78;1.92;;;;;;;;;;4939205;28;20087;-75
2024/04/14 08:28:49;;;;;;;1.95;1.40;;;;;;;;;;4932478;28;20098;-74
2024/04/14 08:31:15;;;;;;;3.40;1.50;;;;;;;;;;4916396;29;20487;-75
2024/04/14 08:33:41;;;;;;;1.50;1.40;;;;;;;;;;4943008;28;20036;-75
2024/04/14 08:36:07;;;;;;;1.65;1.45;;;;;;;;;;4940066;28;20491;-76
2024/04/14 08:38:33;;;;;;;1.88;1.77;;;;;;;;;;4940395;29;20051;-75
2024/04/14 08:40:58;;;;;;;1.67;1.58;;;;;;;;;;4922905;29;20421;-75
2024/04/14 08:43:24;;;;;;;2.13;1.85;;;;;;;;;;4945483;28;20178;-75
2024/04/14 08:45:50;;;;;;;1.83;1.73;;;;;;;;;;4940192;28;20390;-75
2024/04/14 08:48:19;;;;;;;2.00;1.83;;;;;;;;;;4921324;28;20038;-75
2024/04/14 08:50:48;;;;;;;1.90;1.80;;;;;;;;;;4941143;28;20047;-76
2024/04/14 08:53:21;;;;;;;3.17;1.83;;;;;;;;;;4940040;28;20039;-76
2024/04/14 08:55:47;;;;;;;1.40;1.40;;;;;;;;;;4946462;28;20449;-76
2024/04/14 08:58:14;;;;;;;2.15;1.95;;;;;;;;;;4948476;28;20059;-76
2024/04/14 09:00:39;;;;;;;1.95;1.80;;;;;;;;;;4957570;28;20689;-76
2024/04/14 09:03:05;;;;;;;1.70;1.60;;;;;;;;;;4948858;28;20074;-76
2024/04/14 09:05:33;;;;;;;3.58;2.05;;;;;;;;;;4939924;28;20036;-76
2024/04/14 09:07:59;;;;;;;1.90;1.80;;;;;;;;;;4951065;28;20032;-76
2024/04/14 09:10:24;;;;;;;2.40;2.30;;;;;;;;;;4932173;29;20043;-76
2024/04/14 09:12:50;;;;;;;2.15;2.00;;;;;;;;;;4942192;28;20500;-76
2024/04/14 09:15:16;;;;;;;2.50;2.30;;;;;;;;;;4950274;28;20043;-75
2024/04/14 09:17:42;;;;;;;2.20;2.00;;;;;;;;;;4921390;29;20050;-75
2024/04/14 09:20:08;;;;;;;2.15;1.95;;;;;;;;;;4942529;28;20051;-75
2024/04/14 09:22:35;;;;;;;2.10;2.00;;;;;;;;;;4944497;28;20437;-75
2024/04/14 09:25:01;;;;;;;1.88;1.77;;;;;;;;;;4938711;28;20048;-75
2024/04/14 09:27:29;;;;;;;1.45;1.40;;;;;;;;;;4942223;28;20134;-75
2024/04/14 09:29:56;;;;;;;2.08;1.88;;;;;;;;;;4948042;28;20583;-74
2024/04/14 09:32:21;;;;;;;2.20;1.63;;;;;;;;;;4942594;28;20130;-76
2024/04/14 09:34:47;;;;;;;1.88;1.77;;;;;;;;;;4930423;28;20134;-76
2024/04/14 09:37:14;;;;;;;1.90;1.80;;;;;;;;;;4946942;28;20039;-76
2024/04/14 09:39:40;;;;;;;1.98;1.88;;;;;;;;;;4923418;29;20107;-76
2024/04/14 09:42:07;;;;;;;5.25;2.40;;;;;;;;;;4945321;28;20126;-75
2024/04/14 09:44:33;;;;;;;3.70;2.63;;;;;;;;;;4911071;28;20044;-75
2024/04/14 09:46:59;;;;;;;5.63;3.83;;;;;;;;;;4947803;29;20488;-76
2024/04/14 09:49:25;;;;;;;4.40;4.00;;;;;;;;;;4930661;28;20043;-75
2024/04/14 09:51:51;;;;;;;3.60;3.25;;;;;;;;;;4942111;28;20031;-76
2024/04/14 09:54:17;;;;;;;3.90;3.60;;;;;;;;;;4931988;28;20417;-75
2024/04/14 09:56:43;;;;;;;6.22;3.63;;;;;;;;;;4929076;29;20032;-75
2024/04/14 09:59:08;;;;;;;4.80;4.10;;;;;;;;;;4945406;29;20562;-75
2024/04/14 10:01:35;;;;;;;3.50;3.30;;;;;;;;;;4943341;28;20501;-75
2024/04/14 10:04:01;;;;;;;3.72;3.17;;;;;;;;;;4944380;28;20039;-75
2024/04/14 10:06:27;;;;;;;5.22;3.00;;;;;;;;;;4934776;28;20031;-75
2024/04/14 10:08:53;;;;;;;4.22;3.20;;;;;;;;;;4959374;28;20027;-76
2024/04/14 10:11:20;;;;;;;3.30;3.00;;;;;;;;;;4934413;28;20039;-76
2024/04/14 10:13:47;;;;;;;3.75;3.08;;;;;;;;;;4934661;28;20126;-75
2024/04/14 10:16:12;;;;;;;2.60;2.40;;;;;;;;;;4948254;28;20066;-74
2024/04/14 10:18:39;;;;;;;3.78;2.50;;;;;;;;;;4927502;29;20036;-75
2024/04/14 10:21:05;;;;;;;3.88;2.95;;;;;;;;;;4950877;28;20043;-76
2024/04/14 10:23:31;;;;;;;5.00;3.22;;;;;;;;;;4929204;29;20039;-76
2024/04/14 10:25:56;;;;;;;3.55;2.95;;;;;;;;;;4946386;28;20119;-76
2024/04/14 10:28:22;;;;;;;2.80;2.53;;;;;;;;;;4930872;29;20130;-76
2024/04/14 10:31:01;;;;;;;3.40;2.60;;;;;;;;;;4928899;29;20039;-77
2024/04/14 10:33:27;;;;;;;3.72;2.50;;;;;;;;;;4943980;28;20059;-76
2024/04/14 10:36:03;;;;;;;3.78;2.38;;;;;;;;;;4946158;28;20038;-76
2024/04/14 10:38:30;;;;;;;2.55;2.35;;;;;;;;;;4945755;28;20094;-75
2024/04/14 10:40:56;;;;;;;2.08;1.98;;;;;;;;;;4928571;28;20555;-76
2024/04/14 10:43:24;;;;;;;2.08;1.90;;;;;;;;;;4916887;29;20130;-76
2024/04/14 10:45:49;;;;;;;2.55;2.13;;;;;;;;;;4947950;28;20452;-76
2024/04/14 10:48:15;;;;;;;1.50;1.40;;;;;;;;;;4947589;28;20044;-75
2024/04/14 10:50:47;;;;;;;1.73;1.60;;;;;;;;;;4943405;28;20550;-75
2024/04/14 10:53:13;;;;;;;1.70;1.60;;;;;;;;;;4942844;28;20047;-75
2024/04/14 10:55:39;;;;;;;1.20;1.20;;;;;;;;;;4929932;29;20038;-75
2024/04/14 10:58:05;;;;;;;1.80;1.70;;;;;;;;;;4952693;28;20036;-75
2024/04/14 11:00:31;;;;;;;1.85;1.67;;;;;;;;;;4950364;28;20062;-75
2024/04/14 11:02:58;;;;;;;2.60;1.30;;;;;;;;;;4947543;28;20082;-76
2024/04/14 11:05:24;;;;;;;1.77;1.45;;;;;;;;;;4957093;28;20035;-75
2024/04/14 11:07:50;;;;;;;1.55;1.45;;;;;;;;;;4952912;28;20037;-76
2024/04/14 11:10:16;;;;;;;1.65;1.55;;;;;;;;;;4947814;28;20124;-75
2024/04/14 11:12:42;;;;;;;1.90;1.80;;;;;;;;;;4942460;28;20058;-75
2024/04/14 11:15:11;;;;;;;2.85;2.00;;;;;;;;;;4941453;29;20039;-76
2024/04/14 11:17:37;;;;;;;1.95;1.80;;;;;;;;;;4943770;28;20043;-75
2024/04/14 11:20:03;;;;;;;3.17;1.92;;;;;;;;;;4942935;29;20042;-75
2024/04/14 11:22:31;;;;;;;2.03;1.80;;;;;;;;;;4940780;28;20028;-75
2024/04/14 11:24:57;;;;;;;2.20;2.00;;;;;;;;;;4945679;28;20051;-75
2024/04/14 11:27:23;;;;;;;4.82;2.00;;;;;;;;;;4933255;29;20500;-75
2024/04/14 11:29:50;;;;;;;2.35;1.77;;;;;;;;;;4942188;28;20030;-76
2024/04/14 11:32:29;;;;;;;5.30;2.30;;;;;;;;;;4941738;28;20123;-75
2024/04/14 11:34:56;;;;;;;2.13;2.00;;;;;;;;;;4940457;28;20032;-74
2024/04/14 11:37:23;;;;;;;2.03;1.92;;;;;;;;;;4935854;29;20043;-73
2024/04/14 11:39:50;;;;;;;2.95;2.25;;;;;;;;;;4943507;28;20053;-75
2024/04/14 11:42:19;;;;;;;4.35;1.88;;;;;;;;;;4942809;28;20110;-74
2024/04/14 11:44:45;;;;;;;2.45;1.60;;;;;;;;;;4951052;28;20064;-73
2024/04/14 11:47:11;;;;;;;2.17;1.83;;;;;;;;;;4946595;28;20038;-74
2024/04/14 11:49:37;;;;;;;2.20;1.75;;;;;;;;;;4945774;28;20122;-74
2024/04/14 11:52:02;;;;;;;2.47;2.28;;;;;;;;;;4941185;28;20031;-75
2024/04/14 11:54:29;;;;;;;2.65;2.40;;;;;;;;;;4943451;28;20055;-76
2024/04/14 11:56:55;;;;;;;2.60;2.40;;;;;;;;;;4927475;29;20126;-75
2024/04/14 11:59:21;;;;;;;2.42;2.30;;;;;;;;;;4947185;28;20047;-79
2024/04/14 12:01:46;;;;;;;2.03;1.92;;;;;;;;;;4953490;28;20042;-79
2024/04/14 12:04:12;;;;;;;2.28;2.08;;;;;;;;;;4953034;28;20058;-78
2024/04/14 12:06:38;;;;;;;2.50;2.30;;;;;;;;;;4944404;28;20412;-77
2024/04/14 12:09:04;;;;;;;2.90;2.10;;;;;;;;;;4917682;28;20034;-79
2024/04/14 12:11:30;;;;;;;3.67;2.10;;;;;;;;;;4957653;28;20022;-78
2024/04/14 12:13:55;;;;;;;2.40;2.05;;;;;;;;;;4946743;28;20134;-79
2024/04/14 12:16:21;;;;;;;4.55;2.60;;;;;;;;;;4929262;28;20059;-78
2024/04/14 12:18:47;;;;;;;2.55;2.17;;;;;;;;;;4940423;28;20098;-78
2024/04/14 12:21:15;;;;;;;2.88;2.25;;;;;;;;;;4952413;28;20094;-78
2024/04/14 12:23:41;;;;;;;2.15;2.05;;;;;;;;;;4931128;29;20123;-77
2024/04/14 12:26:07;;;;;;;2.17;2.08;;;;;;;;;;4943974;28;20039;-78
2024/04/14 12:28:33;;;;;;;2.00;1.90;;;;;;;;;;4951582;28;20039;-74
2024/04/14 12:30:59;;;;;;;2.40;2.20;;;;;;;;;;4937491;28;20485;-76
2024/04/14 12:33:25;;;;;;;1.70;1.60;;;;;;;;;;4946525;28;20456;-76
2024/04/14 12:35:52;;;;;;;1.30;1.25;;;;;;;;;;4948180;28;20572;-76
2024/04/14 12:38:18;;;;;;;1.52;1.50;;;;;;;;;;4926190;29;20155;-77
2024/04/14 12:40:43;;;;;;;3.72;1.27;;;;;;;;;;4958705;28;20459;-76
2024/04/14 12:43:09;;;;;;;1.95;1.85;;;;;;;;;;4947211;28;20043;-74
2024/04/14 12:45:37;;;;;;;3.33;1.67;;;;;;;;;;4943408;28;20046;-75
2024/04/14 12:48:03;;;;;;;1.90;1.80;;;;;;;;;;4945982;28;20389;-75
2024/04/14 12:50:29;;;;;;;2.45;1.65;;;;;;;;;;4932105;29;20050;-77
2024/04/14 12:52:55;;;;;;;1.88;1.77;;;;;;;;;;4908175;29;20086;-77
2024/04/14 12:55:21;;;;;;;2.03;1.77;;;;;;;;;;4927735;29;20130;-78
2024/04/14 12:57:47;;;;;;;1.92;1.83;;;;;;;;;;4940765;28;20130;-77
2024/04/14 13:00:13;;;;;;;1.52;1.45;;;;;;;;;;4924905;28;20090;-76
2024/04/14 13:02:39;;;;;;;1.85;1.65;;;;;;;;;;4943560;28;20031;-76
2024/04/14 13:05:05;;;;;;;1.95;1.85;;;;;;;;;;4950252;28;20086;-78
2024/04/14 13:07:31;;;;;;;4.35;1.98;;;;;;;;;;4925860;29;20080;-78
2024/04/14 13:09:57;;;;;;;2.40;2.00;;;;;;;;;;4945936;28;20058;-77
2024/04/14 13:12:23;;;;;;;2.00;1.90;;;;;;;;;;4925540;28;20046;-76
2024/04/14 13:14:48;;;;;;;3.58;1.90;;;;;;;;;;4939084;28;20043;-76
2024/04/14 13:17:14;;;;;;;2.05;1.95;;;;;;;;;;4942898;28;20538;-76
2024/04/14 13:19:40;;;;;;;2.38;2.00;;;;;;;;;;4926781;28;20185;-75
2024/04/14 13:22:06;;;;;;;1.88;1.65;;;;;;;;;;4941254;28;20510;-77
2024/04/14 13:24:32;;;;;;;2.50;2.30;;;;;;;;;;4943985;28;20044;-76
2024/04/14 13:26:58;;;;;;;3.55;2.00;;;;;;;;;;4943690;28;20037;-76
2024/04/14 13:29:24;;;;;;;1.92;1.83;;;;;;;;;;4923394;29;20047;-74
2024/04/14 13:31:50;;;;;;;2.60;2.28;;;;;;;;;;4944370;28;20700;-75
2024/04/14 13:34:16;;;;;;;1.95;1.73;;;;;;;;;;4926202;28;20043;-75
2024/04/14 13:36:41;;;;;;;3.15;1.90;;;;;;;;;;4945328;28;20054;-75
2024/04/14 13:39:07;;;;;;;2.30;2.08;;;;;;;;;;4942281;28;20141;-75
2024/04/14 13:41:34;;;;;;;1.92;1.83;;;;;;;;;;4948367;28;20086;-73
2024/04/14 13:44:00;;;;;;;2.28;1.83;;;;;;;;;;4949208;28;20146;-74
2024/04/14 13:46:27;;;;;;;3.47;1.77;;;;;;;;;;4939306;28;20122;-75
2024/04/14 13:48:53;;;;;;;1.98;1.88;;;;;;;;;;4938509;28;20411;-74
2024/04/14 13:51:19;;;;;;;2.25;2.10;;;;;;;;;;4939101;28;20028;-76
2024/04/14 13:53:45;;;;;;;2.30;2.10;;;;;;;;;;4931420;28;20249;-75
2024/04/14 13:56:11;;;;;;;6.75;3.45;;;;;;;;;;4942703;28;20051;-74
2024/04/14 13:58:37;;;;;;;2.45;2.08;;;;;;;;;;4939829;28;20512;-75
2024/04/14 14:01:03;;;;;;;2.00;1.90;;;;;;;;;;4944940;28;20027;-74
2024/04/14 14:03:29;;;;;;;2.38;2.28;;;;;;;;;;4937494;29;20048;-74
2024/04/14 14:05:55;;;;;;;4.18;2.40;;;;;;;;;;4941037;28;20035;-73
2024/04/14 14:08:21;;;;;;;2.17;2.08;;;;;;;;;;4940992;28;20043;-74
2024/04/14 14:10:47;;;;;;;2.30;2.10;;;;;;;;;;4940030;29;20068;-75
2024/04/14 14:13:12;;;;;;;2.10;2.00;;;;;;;;;;4924252;29;20151;-74
2024/04/14 14:15:38;;;;;;;3.58;2.58;;;;;;;;;;4944429;28;20066;-74
2024/04/14 14:18:05;;;;;;;2.95;2.50;;;;;;;;;;4931964;29;20078;-74
2024/04/14 14:20:30;;;;;;;3.97;2.55;;;;;;;;;;4941904;28;20078;-75
2024/04/14 14:22:56;;;;;;;3.92;1.92;;;;;;;;;;4940207;28;20035;-75
2024/04/14 14:25:22;;;;;;;2.42;2.15;;;;;;;;;;4936904;28;20043;-74
2024/04/14 14:27:48;;;;;;;2.08;1.90;;;;;;;;;;4926767;28;20062;-75
2024/04/14 14:30:14;;;;;;;2.67;2.17;;;;;;;;;;4939373;28;20040;-74
2024/04/14 14:32:40;;;;;;;5.05;2.22;;;;;;;;;;4939675;28;20039;-75